Time;durP1;ratioP1;P1;durP2;ratioP2;P2;SDS_P1;SDS_P2;PMS_P1;PMS_P2;Temp;Humidity;BMP_temperature;BMP_pressure;BME280_temperature;BME280_humidity;BME280_pressure;Samples;Min_cycle;Max_cycle;Signal;HPM_P1;HPM_P2
2023/06/24 00:02:09;;;;;;;4.95;2.90;;;20.60;99.90;;;;;;4953514;28;20035;-77
2023/06/24 00:04:35;;;;;;;6.57;3.13;;;20.60;99.90;;;;;;4953365;28;20030;-75
2023/06/24 00:07:01;;;;;;;8.88;3.30;;;20.50;99.90;;;;;;4953857;28;20047;-75
2023/06/24 00:09:27;;;;;;;8.20;2.97;;;20.60;99.90;;;;;;4956949;28;20402;-77
2023/06/24 00:11:58;;;;;;;5.97;2.60;;;20.50;99.90;;;;;;4940104;28;20511;-76
2023/06/24 00:14:26;;;;;;;8.48;2.40;;;20.50;99.90;;;;;;4956526;28;20042;-78
2023/06/24 00:16:56;;;;;;;5.07;3.10;;;20.60;99.90;;;;;;4956835;28;20042;-78
2023/06/24 00:19:26;;;;;;;5.15;2.58;;;20.60;99.90;;;;;;4955906;28;20058;-77
2023/06/24 00:21:53;;;;;;;10.60;4.13;;;20.50;99.90;;;;;;4956636;28;20035;-77
2023/06/24 00:24:19;;;;;;;6.63;2.42;;;20.50;99.90;;;;;;4956904;28;20023;-77
2023/06/24 00:26:48;;;;;;;6.70;3.85;;;20.40;99.90;;;;;;4956514;28;20043;-77
2023/06/24 00:29:15;;;;;;;6.93;3.47;;;20.30;99.90;;;;;;4956508;28;20027;-77
2023/06/24 00:31:41;;;;;;;7.40;3.20;;;20.40;99.90;;;;;;4939045;29;20043;-74
2023/06/24 00:34:07;;;;;;;8.90;3.45;;;20.40;99.90;;;;;;4956251;28;20475;-76
2023/06/24 00:36:34;;;;;;;7.32;3.38;;;20.40;99.90;;;;;;4938950;28;20046;-75
2023/06/24 00:39:03;;;;;;;8.13;3.42;;;20.40;99.90;;;;;;4956520;28;20031;-75
2023/06/24 00:41:32;;;;;;;9.90;3.40;;;20.40;99.90;;;;;;4951885;28;20543;-78
2023/06/24 00:43:58;;;;;;;7.57;3.10;;;20.40;99.90;;;;;;4956322;28;20027;-78
2023/06/24 00:46:25;;;;;;;5.03;3.05;;;20.40;99.90;;;;;;4939168;29;20494;-78
2023/06/24 00:48:57;;;;;;;7.88;3.72;;;20.40;99.90;;;;;;4956121;28;20046;-75
2023/06/24 00:51:30;;;;;;;6.88;3.03;;;20.40;99.90;;;;;;4955594;28;20027;-74
2023/06/24 00:53:59;;;;;;;6.22;3.28;;;20.40;99.90;;;;;;4938933;28;20043;-77
2023/06/24 00:56:30;;;;;;;7.13;3.22;;;20.40;99.90;;;;;;4938747;29;20050;-77
2023/06/24 00:59:01;;;;;;;4.90;3.10;;;20.40;99.90;;;;;;4956053;28;20027;-77
2023/06/24 01:01:33;;;;;;;7.75;3.33;;;20.50;99.90;;;;;;4955876;28;20436;-77
2023/06/24 01:04:00;;;;;;;8.90;3.75;;;20.50;99.90;;;;;;4956288;28;20023;-75
2023/06/24 01:06:30;;;;;;;8.27;3.25;;;20.50;99.90;;;;;;4965551;28;20042;-76
2023/06/24 01:09:00;;;;;;;7.43;3.28;;;20.50;99.90;;;;;;4957125;28;20057;-77
2023/06/24 01:11:28;;;;;;;5.23;3.33;;;20.50;99.90;;;;;;4955794;28;20471;-77
2023/06/24 01:13:54;;;;;;;6.93;3.10;;;20.50;99.90;;;;;;4952233;28;20633;-76
2023/06/24 01:16:52;;;;;;;10.88;3.72;;;20.50;99.90;;;;;;4928226;29;20078;-77
2023/06/24 01:19:41;;;;;;;6.60;3.53;;;20.30;99.90;;;;;;4929254;28;20047;-78
2023/06/24 01:22:53;;;;;;;6.97;3.28;;;20.30;99.90;;;;;;4935090;29;20055;-75
2023/06/24 01:25:55;;;;;;;5.90;2.67;;;20.20;99.90;;;;;;4941122;29;20024;-78
2023/06/24 01:28:33;;;;;;;7.22;3.35;;;20.20;99.90;;;;;;4935789;29;20126;-77
2023/06/24 01:31:18;;;;;;;8.48;3.92;;;20.10;99.90;;;;;;4934847;29;20086;-78
2023/06/24 01:33:54;;;;;;;6.63;3.20;;;20.10;99.90;;;;;;4935008;29;20028;-77
2023/06/24 01:36:23;;;;;;;15.63;3.63;;;20.00;99.90;;;;;;4938803;29;20028;-77
2023/06/24 01:38:58;;;;;;;5.65;3.20;;;20.10;99.90;;;;;;4934759;29;20095;-76
2023/06/24 01:41:27;;;;;;;6.32;3.40;;;20.10;99.90;;;;;;4935462;29;20134;-80
2023/06/24 01:43:54;;;;;;;12.77;3.53;;;20.10;99.90;;;;;;4935741;29;20098;-79
2023/06/24 01:46:25;;;;;;;8.18;4.25;;;20.00;99.90;;;;;;4935502;29;20361;-78
2023/06/24 01:48:57;;;;;;;8.30;3.13;;;20.00;99.90;;;;;;4949642;28;20050;-79
2023/06/24 01:51:24;;;;;;;;;;;19.90;99.90;;;;;;4933900;29;20041;-75
2023/06/24 01:53:57;;;;;;;7.10;3.20;;;20.00;99.90;;;;;;4933915;29;19914;-78
2023/06/24 01:56:27;;;;;;;8.15;2.97;;;20.00;99.90;;;;;;4934466;29;20114;-76
2023/06/24 01:58:56;;;;;;;6.30;3.13;;;20.00;99.90;;;;;;4934879;29;20015;-78
2023/06/24 02:01:23;;;;;;;6.88;3.22;;;20.00;99.90;;;;;;4933521;29;20032;-78
2023/06/24 02:03:50;;;;;;;6.07;3.58;;;20.10;99.90;;;;;;4933637;29;20030;-76
2023/06/24 02:06:18;;;;;;;7.72;3.78;;;20.00;99.90;;;;;;4934011;29;20069;-76
2023/06/24 02:08:47;;;;;;;6.20;3.17;;;19.80;99.90;;;;;;4934093;29;20039;-77
2023/06/24 02:11:15;;;;;;;5.50;3.20;;;19.90;99.90;;;;;;4934476;29;20020;-78
2023/06/24 02:13:42;;;;;;;13.52;3.90;;;20.00;99.90;;;;;;4938012;29;20428;-78
2023/06/24 02:16:16;;;;;;;8.98;4.10;;;20.00;99.90;;;;;;4949609;29;20027;-78
2023/06/24 02:18:43;;;;;;;9.00;3.90;;;19.90;99.90;;;;;;4934027;29;20032;-76
2023/06/24 02:21:09;;;;;;;7.22;3.92;;;19.90;99.90;;;;;;4934443;29;20038;-78
2023/06/24 02:23:37;;;;;;;7.57;3.38;;;19.70;99.90;;;;;;4949186;29;20043;-74
2023/06/24 02:26:06;;;;;;;8.23;4.13;;;19.80;99.90;;;;;;4934450;29;20106;-77
2023/06/24 02:28:33;;;;;;;8.07;3.75;;;19.80;99.90;;;;;;4934256;29;20024;-77
2023/06/24 02:31:00;;;;;;;11.40;4.40;;;19.80;99.90;;;;;;4933014;29;20027;-75
2023/06/24 02:33:26;;;;;;;8.68;3.95;;;19.70;99.90;;;;;;4933246;29;20035;-77
2023/06/24 02:35:52;;;;;;;11.35;4.35;;;19.80;99.90;;;;;;4933291;29;20030;-75
2023/06/24 02:38:18;;;;;;;7.25;4.03;;;19.80;99.90;;;;;;4934577;29;20053;-77
2023/06/24 02:40:47;;;;;;;9.18;4.40;;;19.80;99.90;;;;;;4935263;29;20091;-75
2023/06/24 02:43:14;;;;;;;11.27;4.47;;;19.80;99.90;;;;;;4935297;29;20071;-77
2023/06/24 02:45:41;;;;;;;13.18;4.65;;;19.80;99.90;;;;;;4933656;29;20027;-78
2023/06/24 02:48:09;;;;;;;8.05;4.47;;;19.80;99.90;;;;;;4933547;29;20071;-78
2023/06/24 02:50:37;;;;;;;10.15;4.63;;;19.80;99.90;;;;;;4932897;29;20371;-75
2023/06/24 02:53:04;;;;;;;8.10;4.10;;;19.80;99.90;;;;;;4932832;29;20158;-77
2023/06/24 02:55:35;;;;;;;16.13;4.95;;;19.70;99.90;;;;;;4932798;29;20030;-76
2023/06/24 02:58:07;;;;;;;7.38;3.92;;;19.70;99.90;;;;;;4932540;29;20058;-77
2023/06/24 03:01:08;;;;;;;8.85;4.90;;;19.70;99.90;;;;;;4893602;29;20036;-78
2023/06/24 03:03:49;;;;;;;10.55;5.53;;;19.70;99.90;;;;;;4908308;29;20092;-74
2023/06/24 03:06:17;;;;;;;10.55;4.85;;;19.80;99.90;;;;;;4903095;29;20028;-77
2023/06/24 03:08:45;;;;;;;8.13;4.93;;;19.70;99.90;;;;;;4904375;29;20056;-75
2023/06/24 03:11:15;;;;;;;7.35;4.72;;;19.80;99.90;;;;;;4893571;29;20092;-78
2023/06/24 03:13:42;;;;;;;8.43;4.80;;;19.70;99.90;;;;;;4893053;29;20032;-77
2023/06/24 03:16:18;;;;;;;8.95;4.50;;;19.50;99.90;;;;;;4893445;29;20040;-75
2023/06/24 03:18:57;;;;;;;7.95;5.25;;;19.50;99.90;;;;;;4902754;29;20028;-76
2023/06/24 03:21:28;;;;;;;10.30;4.35;;;19.40;99.90;;;;;;4903593;29;20061;-77
2023/06/24 03:23:55;;;;;;;8.60;4.68;;;19.50;99.90;;;;;;4893347;29;20084;-77
2023/06/24 03:26:21;;;;;;;6.78;4.25;;;19.50;99.90;;;;;;4893048;29;20028;-73
2023/06/24 03:28:47;;;;;;;10.90;5.45;;;19.50;99.90;;;;;;4893403;29;20036;-78
2023/06/24 03:31:17;;;;;;;9.23;5.03;;;19.50;99.90;;;;;;4893068;29;20574;-74
2023/06/24 03:33:44;;;;;;;14.77;5.50;;;19.50;99.90;;;;;;4908232;29;20084;-77
2023/06/24 03:36:11;;;;;;;9.13;4.32;;;19.60;99.90;;;;;;4906223;29;20476;-76
2023/06/24 03:38:37;;;;;;;10.68;5.28;;;19.60;99.90;;;;;;4931297;28;20051;-76
2023/06/24 03:41:03;;;;;;;10.13;5.28;;;19.70;99.90;;;;;;4934299;29;20126;-77
2023/06/24 03:43:28;;;;;;;9.70;5.43;;;19.70;99.90;;;;;;4935992;29;20037;-77
2023/06/24 03:45:55;;;;;;;9.43;4.88;;;19.70;99.90;;;;;;4936991;29;20436;-78
2023/06/24 03:48:21;;;;;;;11.23;5.47;;;19.70;99.90;;;;;;4935439;29;20099;-77
2023/06/24 03:50:47;;;;;;;9.35;4.97;;;19.90;99.90;;;;;;4934893;29;20475;-78
2023/06/24 03:53:13;;;;;;;9.30;5.63;;;20.00;99.90;;;;;;4938520;29;20035;-77
2023/06/24 03:55:39;;;;;;;23.75;5.32;;;19.90;99.90;;;;;;4937917;28;20024;-77
2023/06/24 03:58:04;;;;;;;9.95;5.57;;;19.90;99.90;;;;;;4944373;29;20114;-76
2023/06/24 04:00:30;;;;;;;11.15;5.63;;;19.70;99.90;;;;;;4935497;29;20365;-77
2023/06/24 04:03:01;;;;;;;9.27;4.80;;;19.70;99.90;;;;;;4938562;29;20036;-76
2023/06/24 04:05:27;;;;;;;9.73;5.45;;;19.80;99.90;;;;;;4936581;29;20380;-74
2023/06/24 04:07:53;;;;;;;9.35;4.95;;;19.80;99.90;;;;;;4935495;28;20047;-79
2023/06/24 04:10:19;;;;;;;9.32;5.53;;;19.90;99.90;;;;;;4935352;29;20038;-77
2023/06/24 04:12:46;;;;;;;10.10;5.20;;;19.80;99.90;;;;;;4936691;29;20074;-78
2023/06/24 04:15:12;;;;;;;8.00;5.07;;;19.90;99.90;;;;;;4935014;29;20032;-74
2023/06/24 04:17:38;;;;;;;9.55;5.90;;;19.80;99.90;;;;;;4935686;29;20054;-75
2023/06/24 04:20:08;;;;;;;8.98;5.28;;;19.90;99.90;;;;;;4935547;29;20188;-75
2023/06/24 04:22:36;;;;;;;11.77;6.00;;;19.90;99.90;;;;;;4935103;29;20038;-76
2023/06/24 04:25:01;;;;;;;9.07;4.88;;;19.90;99.90;;;;;;4934776;29;20507;-78
2023/06/24 04:27:27;;;;;;;11.70;5.78;;;20.10;99.90;;;;;;4934587;29;20113;-77
2023/06/24 04:29:53;;;;;;;7.97;5.15;;;20.20;99.90;;;;;;4936069;29;20376;-79
2023/06/24 04:32:19;;;;;;;12.10;4.93;;;20.50;99.90;;;;;;4930953;29;20043;-78
2023/06/24 04:34:46;;;;;;;6.57;4.05;;;21.10;99.90;;;;;;4934497;29;20106;-76
2023/06/24 04:37:12;;;;;;;9.68;4.78;;;21.00;99.90;;;;;;4934654;29;20118;-74
2023/06/24 04:39:38;;;;;;;8.73;5.22;;;21.00;99.90;;;;;;4934568;29;20402;-74
2023/06/24 04:42:05;;;;;;;8.63;4.55;;;20.90;99.90;;;;;;4934015;29;20448;-79
2023/06/24 04:44:31;;;;;;;9.50;4.35;;;20.80;99.90;;;;;;4950715;28;20041;-74
2023/06/24 04:46:57;;;;;;;12.00;4.72;;;20.90;99.90;;;;;;4956268;28;20465;-77
2023/06/24 04:49:22;;;;;;;8.75;4.65;;;20.70;99.90;;;;;;4956416;28;20031;-78
2023/06/24 04:51:48;;;;;;;6.78;4.18;;;20.80;99.90;;;;;;4956446;28;20028;-75
2023/06/24 04:54:14;;;;;;;8.98;4.30;;;20.70;99.90;;;;;;4955348;28;20031;-79
2023/06/24 04:56:40;;;;;;;8.48;5.07;;;20.60;99.90;;;;;;4956507;28;20027;-76
2023/06/24 04:59:06;;;;;;;10.45;5.13;;;20.60;99.90;;;;;;4956290;28;20055;-78
2023/06/24 05:01:32;;;;;;;8.25;4.70;;;20.40;99.90;;;;;;4957268;28;20055;-79
2023/06/24 05:03:58;;;;;;;9.63;4.60;;;20.40;99.90;;;;;;4961398;28;20114;-76
2023/06/24 05:06:24;;;;;;;9.45;4.78;;;20.40;99.90;;;;;;4956002;28;20035;-77
2023/06/24 05:08:49;;;;;;;9.18;4.63;;;20.40;99.90;;;;;;4953696;28;20046;-77
2023/06/24 05:11:15;;;;;;;8.73;4.55;;;20.30;99.90;;;;;;4955851;28;20039;-74
2023/06/24 05:13:41;;;;;;;8.25;4.68;;;20.60;99.90;;;;;;4955838;28;20038;-76
2023/06/24 05:16:07;;;;;;;6.25;3.95;;;20.80;99.90;;;;;;4955905;29;20030;-79
2023/06/24 05:18:32;;;;;;;8.45;3.80;;;21.00;99.90;;;;;;4956086;29;20027;-79
2023/06/24 05:20:58;;;;;;;7.53;3.78;;;21.00;99.90;;;;;;4955846;29;20375;-78
2023/06/24 05:23:24;;;;;;;16.95;4.70;;;21.10;99.90;;;;;;4955896;29;20487;-78
2023/06/24 05:25:50;;;;;;;8.63;3.95;;;21.10;99.90;;;;;;4955579;28;20399;-81
2023/06/24 05:28:15;;;;;;;7.93;4.28;;;21.00;99.90;;;;;;4955798;28;20031;-74
2023/06/24 05:30:42;;;;;;;6.00;4.18;;;20.90;99.90;;;;;;4955457;29;20427;-76
2023/06/24 05:33:07;;;;;;;8.65;4.55;;;20.90;99.90;;;;;;4955872;28;20031;-77
2023/06/24 05:35:33;;;;;;;9.65;3.97;;;20.90;99.90;;;;;;4955616;28;20078;-78
2023/06/24 05:37:59;;;;;;;9.20;4.47;;;20.90;99.90;;;;;;4955938;28;20031;-75
2023/06/24 05:40:25;;;;;;;9.32;4.30;;;21.00;99.90;;;;;;4955312;29;20041;-75
2023/06/24 05:42:51;;;;;;;9.57;4.90;;;21.10;99.90;;;;;;4953074;28;20023;-75
2023/06/24 05:45:17;;;;;;;6.18;3.97;;;20.90;99.90;;;;;;4955360;29;20035;-78
2023/06/24 05:47:43;;;;;;;9.50;4.07;;;20.90;99.90;;;;;;4954989;28;20031;-76
2023/06/24 05:50:09;;;;;;;8.80;4.13;;;21.10;99.90;;;;;;4955552;28;20165;-74
2023/06/24 05:52:35;;;;;;;7.63;4.45;;;21.10;99.90;;;;;;4955526;28;20042;-74
2023/06/24 05:55:01;;;;;;;7.68;4.65;;;21.00;99.90;;;;;;4942623;29;20055;-74
2023/06/24 05:57:27;;;;;;;8.30;4.45;;;21.10;99.90;;;;;;4954843;28;20535;-77
2023/06/24 05:59:53;;;;;;;7.95;3.92;;;21.20;99.90;;;;;;4955125;29;20103;-77
2023/06/24 06:02:19;;;;;;;11.18;4.40;;;21.60;99.90;;;;;;4954615;29;20534;-74
2023/06/24 06:04:44;;;;;;;7.45;4.40;;;22.10;99.90;;;;;;4954221;28;20460;-74
2023/06/24 06:07:10;;;;;;;7.45;4.53;;;22.60;99.90;;;;;;4954504;28;20035;-79
2023/06/24 06:09:36;;;;;;;7.28;4.30;;;22.90;99.90;;;;;;4949957;29;20524;-74
2023/06/24 06:12:02;;;;;;;6.70;4.35;;;23.20;99.90;;;;;;4935761;29;20058;-78
2023/06/24 06:14:28;;;;;;;9.57;4.80;;;23.50;99.90;;;;;;4935418;29;20032;-78
2023/06/24 06:16:54;;;;;;;6.90;4.30;;;23.70;99.90;;;;;;4953425;28;20031;-79
2023/06/24 06:19:20;;;;;;;7.75;4.28;;;23.70;99.90;;;;;;4954634;28;20050;-77
2023/06/24 06:21:45;;;;;;;9.13;5.20;;;24.00;99.90;;;;;;4954759;28;20031;-78
2023/06/24 06:24:11;;;;;;;7.38;4.63;;;24.00;99.90;;;;;;4954603;28;20031;-78
2023/06/24 06:26:42;;;;;;;8.43;5.03;;;23.90;99.90;;;;;;4954371;28;20035;-77
2023/06/24 06:29:08;;;;;;;9.70;4.68;;;24.00;99.90;;;;;;4954185;28;20034;-79
2023/06/24 06:31:34;;;;;;;9.95;5.05;;;23.90;99.90;;;;;;4937743;29;20383;-79
2023/06/24 06:34:01;;;;;;;14.50;5.57;;;24.00;99.90;;;;;;4954942;28;20042;-81
2023/06/24 06:36:27;;;;;;;12.75;5.43;;;24.10;99.90;;;;;;4954793;28;20015;-80
2023/06/24 06:38:53;;;;;;;7.38;4.28;;;24.10;99.90;;;;;;4946956;29;20386;-81
2023/06/24 06:41:24;;;;;;;8.95;5.07;;;23.80;99.90;;;;;;4954853;28;20027;-77
2023/06/24 06:43:51;;;;;;;8.43;4.75;;;23.60;99.90;;;;;;4954647;28;20106;-80
2023/06/24 06:46:17;;;;;;;8.15;4.95;;;23.60;99.90;;;;;;4954781;28;20019;-77
2023/06/24 06:48:43;;;;;;;12.10;4.95;;;23.60;99.90;;;;;;4956187;28;20086;-80
2023/06/24 06:51:08;;;;;;;10.30;5.70;;;23.40;99.90;;;;;;4953237;28;20023;-77
2023/06/24 06:53:34;;;;;;;7.95;4.90;;;23.00;99.90;;;;;;4950808;28;20101;-77
2023/06/24 06:56:00;;;;;;;9.18;4.47;;;23.00;99.90;;;;;;4954379;28;20031;-74
2023/06/24 06:58:26;;;;;;;10.52;4.95;;;23.00;99.90;;;;;;4955900;28;20051;-74
2023/06/24 07:00:51;;;;;;;7.95;4.43;;;23.10;99.90;;;;;;4952678;28;20399;-79
2023/06/24 07:03:17;;;;;;;9.88;4.85;;;23.10;99.90;;;;;;4954207;28;20034;-79
2023/06/24 07:05:43;;;;;;;8.57;4.28;;;23.10;99.90;;;;;;4947688;28;20030;-80
2023/06/24 07:08:09;;;;;;;9.82;4.68;;;23.30;99.90;;;;;;4947908;29;20569;-79
2023/06/24 07:10:35;;;;;;;10.90;5.30;;;23.50;99.90;;;;;;4954482;28;20061;-80
2023/06/24 07:13:01;;;;;;;8.23;4.97;;;23.80;99.90;;;;;;4954415;28;20042;-82
2023/06/24 07:15:27;;;;;;;8.57;4.22;;;24.10;99.90;;;;;;4956287;28;20110;-81
2023/06/24 07:17:53;;;;;;;7.32;4.78;;;24.50;99.90;;;;;;4964760;28;20027;-82
2023/06/24 07:20:21;;;;;;;7.38;4.65;;;24.80;99.90;;;;;;4954046;28;20115;-79
2023/06/24 07:22:47;;;;;;;15.50;4.25;;;24.60;99.90;;;;;;4953665;28;20027;-77
2023/06/24 07:25:13;;;;;;;8.18;4.35;;;24.60;99.90;;;;;;4953970;28;20027;-78
2023/06/24 07:27:39;;;;;;;7.85;4.40;;;24.70;99.90;;;;;;4946410;28;20110;-80
2023/06/24 07:30:06;;;;;;;9.35;5.00;;;24.80;99.90;;;;;;4945284;28;20027;-81
2023/06/24 07:32:31;;;;;;;8.30;4.22;;;24.50;99.90;;;;;;4945634;28;20059;-79
2023/06/24 07:34:57;;;;;;;8.75;4.35;;;24.20;99.90;;;;;;4954925;28;20066;-78
2023/06/24 07:37:24;;;;;;;10.13;4.75;;;24.10;99.90;;;;;;4955191;28;20027;-80
2023/06/24 07:39:50;;;;;;;6.45;4.10;;;23.90;99.90;;;;;;4953690;28;20038;-80
2023/06/24 07:42:18;;;;;;;7.32;4.38;;;23.80;99.90;;;;;;4937696;29;20039;-79
2023/06/24 07:44:48;;;;;;;5.47;3.25;;;23.80;99.90;;;;;;4952863;28;20030;-76
2023/06/24 07:47:16;;;;;;;8.55;4.55;;;23.80;99.90;;;;;;4952856;28;20542;-81
2023/06/24 07:49:41;;;;;;;7.93;4.60;;;23.70;99.90;;;;;;4954189;29;20387;-79
2023/06/24 07:52:07;;;;;;;8.32;4.10;;;23.90;99.90;;;;;;4953291;29;20038;-80
2023/06/24 07:54:34;;;;;;;9.10;4.20;;;24.20;99.90;;;;;;4954155;29;20027;-79
2023/06/24 07:57:01;;;;;;;7.25;4.57;;;24.40;99.90;;;;;;4953123;28;20075;-79
2023/06/24 07:59:27;;;;;;;6.43;4.28;;;24.30;99.90;;;;;;4953950;28;20468;-81
2023/06/24 08:01:52;;;;;;;8.32;4.47;;;24.50;99.90;;;;;;4953534;28;20034;-80
2023/06/24 08:04:18;;;;;;;7.38;4.18;;;25.00;99.90;;;;;;4950182;29;20019;-81
2023/06/24 08:06:45;;;;;;;7.53;4.50;;;25.20;99.90;;;;;;4953699;28;20035;-83
2023/06/24 08:09:10;;;;;;;6.88;3.97;;;25.20;99.40;;;;;;4948600;29;20463;-74
2023/06/24 08:11:36;;;;;;;10.20;4.10;;;25.30;99.90;;;;;;4915399;29;20111;-77
2023/06/24 08:14:03;;;;;;;9.82;3.92;;;25.30;98.80;;;;;;4915419;29;20043;-79
2023/06/24 08:16:29;;;;;;;7.53;4.00;;;25.10;99.00;;;;;;4916251;29;20387;-75
2023/06/24 08:18:55;;;;;;;6.20;3.70;;;24.90;99.90;;;;;;4922352;29;20028;-82
2023/06/24 08:21:20;;;;;;;11.25;4.35;;;24.80;99.10;;;;;;4921098;29;20028;-80
2023/06/24 08:23:46;;;;;;;6.00;3.72;;;25.10;99.90;;;;;;4926888;29;20027;-79
2023/06/24 08:26:12;;;;;;;7.47;3.78;;;25.60;98.30;;;;;;4933613;29;20427;-81
2023/06/24 08:28:38;;;;;;;7.65;3.30;;;25.80;99.90;;;;;;4935715;29;20039;-81
2023/06/24 08:31:04;;;;;;;5.60;3.17;;;25.80;97.80;;;;;;4938789;29;20111;-81
2023/06/24 08:33:30;;;;;;;5.45;3.08;;;25.80;97.00;;;;;;4950693;28;20035;-74
2023/06/24 08:35:55;;;;;;;7.78;2.80;;;25.30;96.50;;;;;;4937937;29;20030;-81
2023/06/24 08:38:21;;;;;;;5.40;3.28;;;25.40;96.90;;;;;;4939522;29;20032;-83
2023/06/24 08:40:49;;;;;;;4.55;3.20;;;25.20;96.50;;;;;;4947039;29;20384;-75
2023/06/24 08:43:15;;;;;;;5.88;3.38;;;25.20;97.70;;;;;;4939529;28;20027;-81
2023/06/24 08:45:41;;;;;;;5.95;3.03;;;25.10;97.00;;;;;;4933786;29;20034;-75
2023/06/24 08:48:08;;;;;;;6.55;3.47;;;25.00;96.40;;;;;;4942148;29;20531;-80
2023/06/24 08:50:40;;;;;;;5.03;2.83;;;25.00;98.10;;;;;;4941487;29;20402;-81
2023/06/24 08:53:08;;;;;;;5.75;3.00;;;25.00;96.60;;;;;;4937873;29;20043;-80
2023/06/24 08:55:42;;;;;;;7.13;3.35;;;25.50;96.20;;;;;;4941110;29;20020;-81
2023/06/24 08:58:08;;;;;;;7.30;3.40;;;25.80;98.50;;;;;;4937041;29;20356;-78
2023/06/24 09:00:35;;;;;;;5.13;2.53;;;26.00;96.20;;;;;;4924305;29;20035;-79
2023/06/24 09:03:01;;;;;;;4.38;2.90;;;26.40;96.10;;;;;;4933629;29;20031;-83
2023/06/24 09:05:26;;;;;;;11.50;3.10;;;26.60;96.40;;;;;;4937716;29;20273;-78
2023/06/24 09:07:53;;;;;;;6.68;3.03;;;26.50;95.70;;;;;;4940166;29;20046;-83
2023/06/24 09:10:36;;;;;;;4.65;2.78;;;26.50;94.10;;;;;;4956574;28;20460;-79
2023/06/24 09:13:06;;;;;;;6.75;3.00;;;26.60;94.80;;;;;;4957955;29;20032;-81
2023/06/24 09:15:33;;;;;;;5.30;2.33;;;26.70;93.80;;;;;;4955322;28;20487;-83
2023/06/24 09:18:03;;;;;;;6.65;2.70;;;26.30;92.40;;;;;;4940034;29;20030;-82
2023/06/24 09:20:31;;;;;;;4.15;2.55;;;26.20;94.60;;;;;;4957062;29;20031;-83
2023/06/24 09:23:01;;;;;;;5.20;2.30;;;26.10;92.70;;;;;;4956266;28;20037;-82
2023/06/24 09:25:27;;;;;;;4.13;2.47;;;25.80;92.70;;;;;;4956709;28;20042;-78
2023/06/24 09:27:55;;;;;;;4.65;2.40;;;25.60;94.70;;;;;;4956353;28;20038;-81
2023/06/24 09:30:24;;;;;;;5.38;2.50;;;25.40;93.40;;;;;;4956503;29;20031;-80
2023/06/24 09:32:51;;;;;;;6.25;2.70;;;25.40;95.70;;;;;;4956387;28;20055;-80
2023/06/24 09:35:22;;;;;;;4.22;2.35;;;25.30;95.60;;;;;;4937344;29;20024;-73
2023/06/24 09:37:55;;;;;;;4.13;2.47;;;25.40;95.30;;;;;;4945721;29;20496;-75
2023/06/24 09:40:22;;;;;;;8.05;2.50;;;25.40;95.50;;;;;;4955785;28;20027;-79
2023/06/24 09:42:54;;;;;;;4.60;2.15;;;25.40;95.80;;;;;;4955966;29;20035;-83
2023/06/24 09:45:23;;;;;;;6.13;2.58;;;25.30;97.30;;;;;;4941695;29;20023;-75
2023/06/24 09:47:49;;;;;;;3.65;2.17;;;25.40;95.10;;;;;;4943186;29;20042;-80
2023/06/24 09:50:15;;;;;;;2.90;2.10;;;25.20;96.00;;;;;;4937963;29;20032;-85
2023/06/24 09:52:44;;;;;;;4.45;2.60;;;25.10;96.00;;;;;;4934416;29;20035;-78
2023/06/24 09:55:11;;;;;;;2.70;1.60;;;25.10;96.40;;;;;;4933883;29;20035;-82
2023/06/24 09:57:38;;;;;;;5.00;2.30;;;25.00;95.40;;;;;;4931040;29;20063;-75
2023/06/24 10:00:05;;;;;;;4.97;2.25;;;24.80;95.90;;;;;;4946136;29;20027;-82
2023/06/24 10:02:32;;;;;;;3.33;2.20;;;24.70;96.10;;;;;;4955089;28;20043;-79
2023/06/24 10:04:59;;;;;;;7.15;2.75;;;24.70;96.90;;;;;;4954836;29;20027;-75
2023/06/24 10:07:27;;;;;;;4.80;2.30;;;24.80;96.80;;;;;;4954668;28;20101;-80
2023/06/24 10:09:53;;;;;;;4.55;2.10;;;25.00;97.10;;;;;;4951654;28;20058;-77
2023/06/24 10:12:19;;;;;;;3.95;2.10;;;24.90;95.80;;;;;;4936600;29;20059;-80
2023/06/24 10:14:45;;;;;;;8.43;2.20;;;24.90;96.20;;;;;;4954787;28;20480;-80
2023/06/24 10:17:12;;;;;;;3.65;2.30;;;24.80;95.90;;;;;;4954688;28;20035;-74
2023/06/24 10:19:41;;;;;;;6.13;2.35;;;24.80;95.80;;;;;;4954862;28;20031;-83
2023/06/24 10:22:09;;;;;;;2.65;1.88;;;24.80;95.40;;;;;;4953920;28;20097;-81
2023/06/24 10:24:41;;;;;;;2.67;1.75;;;24.60;97.40;;;;;;4938124;28;20124;-81
2023/06/24 10:27:16;;;;;;;2.83;1.70;;;24.50;95.20;;;;;;4950479;28;20035;-83
2023/06/24 10:29:51;;;;;;;4.28;2.15;;;24.30;97.50;;;;;;4952213;28;20027;-83
2023/06/24 10:32:22;;;;;;;3.05;1.77;;;24.40;96.10;;;;;;4954360;28;20031;-76
2023/06/24 10:34:55;;;;;;;2.97;1.95;;;24.50;97.40;;;;;;4942627;28;20388;-82
2023/06/24 10:37:24;;;;;;;7.93;1.95;;;24.60;98.40;;;;;;4945987;29;20023;-76
2023/06/24 10:39:52;;;;;;;4.38;2.13;;;24.70;96.50;;;;;;4953048;29;20483;-81
2023/06/24 10:42:26;;;;;;;4.35;2.00;;;24.70;96.70;;;;;;4949688;29;20035;-78
2023/06/24 10:44:53;;;;;;;6.50;1.90;;;24.80;96.70;;;;;;4952576;28;20027;-79
2023/06/24 10:47:19;;;;;;;2.67;1.80;;;24.80;96.30;;;;;;4953791;28;20093;-78
2023/06/24 10:49:45;;;;;;;6.32;3.38;;;24.90;95.80;;;;;;4947832;28;20019;-78
2023/06/24 10:52:12;;;;;;;8.00;4.53;;;24.60;99.90;;;;;;4942799;28;20631;-81
2023/06/24 10:54:39;;;;;;;6.70;3.83;;;24.30;99.90;;;;;;4937074;28;20149;-81
2023/06/24 10:57:10;;;;;;;11.57;4.55;;;24.20;99.90;;;;;;4954287;28;20034;-81
2023/06/24 10:59:41;;;;;;;5.60;3.90;;;24.20;99.90;;;;;;4953899;28;20114;-80
2023/06/24 11:02:09;;;;;;;8.52;4.15;;;24.40;99.90;;;;;;4954304;28;20023;-80
2023/06/24 11:04:47;;;;;;;7.75;4.00;;;24.90;99.90;;;;;;4953679;28;20035;-79
2023/06/24 11:07:14;;;;;;;8.52;4.25;;;25.00;99.90;;;;;;4953918;28;20075;-79
2023/06/24 11:09:51;;;;;;;7.68;3.72;;;25.30;99.90;;;;;;4953023;28;20051;-78
2023/06/24 11:12:18;;;;;;;13.60;6.88;;;25.40;99.90;;;;;;4953561;28;20046;-78
2023/06/24 11:14:44;;;;;;;14.30;3.85;;;25.50;99.90;;;;;;4943773;29;20075;-78
2023/06/24 11:17:10;;;;;;;8.45;4.72;;;25.50;99.90;;;;;;4951300;29;20023;-78
2023/06/24 11:19:39;;;;;;;8.05;3.80;;;25.40;99.90;;;;;;4936023;29;20023;-76
2023/06/24 11:22:06;;;;;;;5.63;3.00;;;25.20;99.90;;;;;;4933170;29;20031;-77
2023/06/24 11:24:33;;;;;;;6.28;3.50;;;25.10;99.90;;;;;;4934443;29;20059;-77
2023/06/24 11:26:58;;;;;;;6.95;3.40;;;25.00;99.90;;;;;;4941669;29;20043;-78
2023/06/24 11:29:28;;;;;;;5.28;3.53;;;24.80;99.90;;;;;;4942993;29;20396;-78
2023/06/24 11:31:54;;;;;;;7.85;3.83;;;24.60;99.90;;;;;;4934401;29;20086;-79
2023/06/24 11:34:21;;;;;;;8.13;4.10;;;24.20;99.90;;;;;;4945752;29;20024;-78
2023/06/24 11:36:48;;;;;;;8.05;4.40;;;24.30;99.90;;;;;;4952788;28;20024;-79
2023/06/24 11:39:21;;;;;;;10.02;4.43;;;24.30;99.90;;;;;;4946791;29;20523;-78
2023/06/24 11:41:47;;;;;;;6.30;4.00;;;24.00;99.90;;;;;;4953826;29;20491;-79
2023/06/24 11:44:13;;;;;;;7.20;4.15;;;24.20;99.90;;;;;;4953564;28;20057;-76
2023/06/24 11:46:40;;;;;;;7.30;3.67;;;24.50;99.90;;;;;;4953455;29;20050;-77
2023/06/24 11:49:08;;;;;;;6.75;3.97;;;24.60;99.90;;;;;;4953623;28;20027;-75
2023/06/24 11:51:35;;;;;;;8.27;3.97;;;24.40;99.90;;;;;;4953512;28;20023;-79
2023/06/24 11:54:05;;;;;;;7.40;3.80;;;24.60;99.90;;;;;;4947386;28;20074;-80
2023/06/24 11:56:38;;;;;;;8.57;4.88;;;24.80;99.90;;;;;;4953362;29;20356;-75
2023/06/24 11:59:19;;;;;;;11.48;4.63;;;24.50;99.90;;;;;;4953649;29;20031;-77
2023/06/24 12:01:52;;;;;;;7.22;4.53;;;24.10;99.90;;;;;;4953549;28;20058;-78
2023/06/24 12:04:17;;;;;;;7.80;4.13;;;23.60;99.90;;;;;;4957239;29;20039;-78
2023/06/24 12:06:44;;;;;;;10.55;4.07;;;23.80;99.90;;;;;;4956606;29;20027;-76
2023/06/24 12:09:10;;;;;;;9.82;4.20;;;23.90;99.90;;;;;;4951367;28;20059;-78
2023/06/24 12:11:37;;;;;;;8.00;3.83;;;23.90;99.90;;;;;;4969954;28;20086;-76
2023/06/24 12:14:03;;;;;;;8.40;4.05;;;24.40;99.90;;;;;;4957006;28;20395;-78
2023/06/24 12:16:29;;;;;;;9.32;3.65;;;24.00;99.90;;;;;;4957027;28;20031;-78
2023/06/24 12:18:55;;;;;;;5.90;3.88;;;24.20;99.90;;;;;;4956865;28;20171;-76
2023/06/24 12:21:22;;;;;;;5.40;3.60;;;24.20;99.90;;;;;;4945115;28;20086;-78
2023/06/24 12:23:48;;;;;;;5.72;3.33;;;23.90;99.90;;;;;;4949035;28;20168;-77
2023/06/24 12:26:15;;;;;;;6.45;3.47;;;23.80;99.90;;;;;;4956635;28;20122;-76
2023/06/24 12:28:41;;;;;;;6.10;3.35;;;23.60;99.90;;;;;;4956091;29;20134;-78
2023/06/24 12:31:07;;;;;;;8.00;3.65;;;23.50;99.90;;;;;;4956795;28;20530;-75
2023/06/24 12:33:32;;;;;;;6.32;3.83;;;23.70;99.90;;;;;;4956828;28;20062;-80
2023/06/24 12:35:59;;;;;;;5.25;3.35;;;23.80;99.90;;;;;;4956882;28;20023;-78
2023/06/24 12:38:24;;;;;;;7.70;3.03;;;23.90;99.90;;;;;;4951048;29;20375;-74
2023/06/24 12:40:50;;;;;;;6.40;2.83;;;23.80;99.90;;;;;;4955659;28;20031;-77
2023/06/24 12:43:16;;;;;;;6.60;2.92;;;23.70;99.90;;;;;;4956663;29;20027;-74
2023/06/24 12:45:45;;;;;;;5.07;3.20;;;23.90;99.90;;;;;;4956500;28;20039;-76
2023/06/24 12:48:12;;;;;;;5.70;2.38;;;23.80;99.90;;;;;;4958758;28;20119;-73
2023/06/24 12:50:38;;;;;;;9.50;2.85;;;23.80;99.90;;;;;;4959173;28;20034;-75